sensor_id;sensor_type;location;lat;lon;timestamp;P1;durP1;ratioP1;P2;durP2;ratioP2
30681;SDS011;17439;48.092;11.842;2024-01-11T00:00:36;34.27;;;9.77;;
30681;SDS011;17439;48.092;11.842;2024-01-11T00:03:03;35.33;;;10.60;;
30681;SDS011;17439;48.092;11.842;2024-01-11T00:05:30;27.50;;;9.30;;
30681;SDS011;17439;48.092;11.842;2024-01-11T00:07:57;29.83;;;10.23;;
30681;SDS011;17439;48.092;11.842;2024-01-11T00:10:23;36.90;;;10.90;;
30681;SDS011;17439;48.092;11.842;2024-01-11T00:12:50;32.83;;;10.90;;
30681;SDS011;17439;48.092;11.842;2024-01-11T00:15:17;32.78;;;10.68;;
30681;SDS011;17439;48.092;11.842;2024-01-11T00:17:44;25.83;;;10.70;;
30681;SDS011;17439;48.092;11.842;2024-01-11T00:20:11;42.77;;;12.23;;
30681;SDS011;17439;48.092;11.842;2024-01-11T00:22:38;35.80;;;11.77;;
30681;SDS011;17439;48.092;11.842;2024-01-11T00:25:05;35.78;;;9.98;;
30681;SDS011;17439;48.092;11.842;2024-01-11T00:27:32;36.33;;;10.53;;
30681;SDS011;17439;48.092;11.842;2024-01-11T00:29:58;38.13;;;14.38;;
30681;SDS011;17439;48.092;11.842;2024-01-11T00:32:25;39.78;;;12.60;;
30681;SDS011;17439;48.092;11.842;2024-01-11T00:34:52;36.10;;;10.93;;
30681;SDS011;17439;48.092;11.842;2024-01-11T00:37:19;41.55;;;12.95;;
30681;SDS011;17439;48.092;11.842;2024-01-11T00:39:46;41.78;;;11.90;;
30681;SDS011;17439;48.092;11.842;2024-01-11T00:42:12;37.05;;;11.40;;
30681;SDS011;17439;48.092;11.842;2024-01-11T00:44:39;41.58;;;11.75;;
30681;SDS011;17439;48.092;11.842;2024-01-11T00:47:06;40.25;;;13.98;;
30681;SDS011;17439;48.092;11.842;2024-01-11T00:49:33;37.33;;;11.63;;
30681;SDS011;17439;48.092;11.842;2024-01-11T00:51:59;38.85;;;10.20;;
30681;SDS011;17439;48.092;11.842;2024-01-11T00:54:26;39.95;;;13.30;;
30681;SDS011;17439;48.092;11.842;2024-01-11T00:56:53;36.08;;;10.90;;
30681;SDS011;17439;48.092;11.842;2024-01-11T00:59:19;38.72;;;11.88;;
30681;SDS011;17439;48.092;11.842;2024-01-11T01:01:49;33.47;;;12.43;;
30681;SDS011;17439;48.092;11.842;2024-01-11T01:04:16;42.65;;;13.60;;
30681;SDS011;17439;48.092;11.842;2024-01-11T01:06:43;39.10;;;11.27;;
30681;SDS011;17439;48.092;11.842;2024-01-11T01:09:10;31.65;;;10.43;;
30681;SDS011;17439;48.092;11.842;2024-01-11T01:11:37;43.05;;;12.68;;
30681;SDS011;17439;48.092;11.842;2024-01-11T01:14:04;39.38;;;11.40;;
30681;SDS011;17439;48.092;11.842;2024-01-11T01:16:31;40.88;;;11.57;;
30681;SDS011;17439;48.092;11.842;2024-01-11T01:18:58;44.13;;;12.85;;
30681;SDS011;17439;48.092;11.842;2024-01-11T01:21:25;37.08;;;10.88;;
30681;SDS011;17439;48.092;11.842;2024-01-11T01:23:52;38.65;;;11.27;;
30681;SDS011;17439;48.092;11.842;2024-01-11T01:26:19;39.83;;;12.32;;
30681;SDS011;17439;48.092;11.842;2024-01-11T01:28:45;38.00;;;10.93;;
30681;SDS011;17439;48.092;11.842;2024-01-11T01:31:12;31.23;;;10.38;;
30681;SDS011;17439;48.092;11.842;2024-01-11T01:33:39;25.05;;;9.18;;
30681;SDS011;17439;48.092;11.842;2024-01-11T01:36:10;33.25;;;8.80;;
30681;SDS011;17439;48.092;11.842;2024-01-11T01:38:37;41.15;;;10.75;;
30681;SDS011;17439;48.092;11.842;2024-01-11T01:41:04;28.30;;;10.15;;
30681;SDS011;17439;48.092;11.842;2024-01-11T01:43:30;27.48;;;7.63;;
30681;SDS011;17439;48.092;11.842;2024-01-11T01:45:57;30.08;;;9.63;;
30681;SDS011;17439;48.092;11.842;2024-01-11T01:48:25;27.98;;;9.85;;
30681;SDS011;17439;48.092;11.842;2024-01-11T01:50:53;26.40;;;8.38;;
30681;SDS011;17439;48.092;11.842;2024-01-11T01:55:49;35.38;;;11.55;;
30681;SDS011;17439;48.092;11.842;2024-01-11T01:58:18;32.90;;;11.15;;
30681;SDS011;17439;48.092;11.842;2024-01-11T02:03:15;31.02;;;8.63;;
30681;SDS011;17439;48.092;11.842;2024-01-11T02:05:42;29.08;;;9.40;;
30681;SDS011;17439;48.092;11.842;2024-01-11T02:08:12;33.20;;;10.70;;
30681;SDS011;17439;48.092;11.842;2024-01-11T02:10:42;29.45;;;9.32;;
30681;SDS011;17439;48.092;11.842;2024-01-11T02:13:10;36.87;;;11.30;;
30681;SDS011;17439;48.092;11.842;2024-01-11T02:15:37;31.10;;;11.90;;
30681;SDS011;17439;48.092;11.842;2024-01-11T02:18:04;34.22;;;10.43;;
30681;SDS011;17439;48.092;11.842;2024-01-11T02:20:31;31.67;;;10.37;;
30681;SDS011;17439;48.092;11.842;2024-01-11T02:23:01;31.17;;;10.43;;
30681;SDS011;17439;48.092;11.842;2024-01-11T02:25:31;30.98;;;11.23;;
30681;SDS011;17439;48.092;11.842;2024-01-11T02:27:58;31.88;;;10.32;;
30681;SDS011;17439;48.092;11.842;2024-01-11T02:30:25;26.88;;;8.68;;
30681;SDS011;17439;48.092;11.842;2024-01-11T02:32:52;27.67;;;9.38;;
30681;SDS011;17439;48.092;11.842;2024-01-11T02:35:20;29.08;;;8.60;;
30681;SDS011;17439;48.092;11.842;2024-01-11T02:37:48;24.73;;;9.65;;
30681;SDS011;17439;48.092;11.842;2024-01-11T02:40:15;23.30;;;8.90;;
30681;SDS011;17439;48.092;11.842;2024-01-11T02:42:42;26.75;;;8.18;;
30681;SDS011;17439;48.092;11.842;2024-01-11T02:45:08;17.15;;;6.25;;
30681;SDS011;17439;48.092;11.842;2024-01-11T02:47:38;23.80;;;8.57;;
30681;SDS011;17439;48.092;11.842;2024-01-11T02:50:06;23.55;;;8.02;;
30681;SDS011;17439;48.092;11.842;2024-01-11T02:52:33;27.85;;;7.63;;
30681;SDS011;17439;48.092;11.842;2024-01-11T02:55:00;24.75;;;9.55;;
30681;SDS011;17439;48.092;11.842;2024-01-11T02:57:27;23.00;;;8.52;;
30681;SDS011;17439;48.092;11.842;2024-01-11T02:59:54;17.35;;;7.72;;
30681;SDS011;17439;48.092;11.842;2024-01-11T03:02:21;28.00;;;9.55;;
30681;SDS011;17439;48.092;11.842;2024-01-11T03:04:48;22.48;;;7.85;;
30681;SDS011;17439;48.092;11.842;2024-01-11T03:07:14;24.20;;;10.18;;
30681;SDS011;17439;48.092;11.842;2024-01-11T03:09:41;28.05;;;9.02;;
30681;SDS011;17439;48.092;11.842;2024-01-11T03:12:08;20.77;;;8.50;;
30681;SDS011;17439;48.092;11.842;2024-01-11T03:14:35;26.50;;;8.98;;
30681;SDS011;17439;48.092;11.842;2024-01-11T03:17:02;24.30;;;8.13;;
30681;SDS011;17439;48.092;11.842;2024-01-11T03:19:28;23.45;;;7.88;;
30681;SDS011;17439;48.092;11.842;2024-01-11T03:21:55;26.08;;;8.32;;
30681;SDS011;17439;48.092;11.842;2024-01-11T03:24:22;24.58;;;9.50;;
30681;SDS011;17439;48.092;11.842;2024-01-11T03:26:49;22.42;;;8.32;;
30681;SDS011;17439;48.092;11.842;2024-01-11T03:29:15;24.92;;;8.90;;
30681;SDS011;17439;48.092;11.842;2024-01-11T03:31:42;31.05;;;9.10;;
30681;SDS011;17439;48.092;11.842;2024-01-11T03:34:09;25.33;;;8.45;;
30681;SDS011;17439;48.092;11.842;2024-01-11T03:36:36;20.50;;;9.15;;
30681;SDS011;17439;48.092;11.842;2024-01-11T03:39:03;27.85;;;9.15;;
30681;SDS011;17439;48.092;11.842;2024-01-11T03:41:29;18.38;;;6.53;;
30681;SDS011;17439;48.092;11.842;2024-01-11T03:43:56;21.02;;;8.35;;
30681;SDS011;17439;48.092;11.842;2024-01-11T03:46:23;23.33;;;8.95;;
30681;SDS011;17439;48.092;11.842;2024-01-11T03:48:50;25.50;;;8.73;;
30681;SDS011;17439;48.092;11.842;2024-01-11T03:51:16;24.50;;;8.75;;
30681;SDS011;17439;48.092;11.842;2024-01-11T03:53:43;21.80;;;8.70;;
30681;SDS011;17439;48.092;11.842;2024-01-11T03:56:10;24.27;;;8.88;;
30681;SDS011;17439;48.092;11.842;2024-01-11T03:58:37;20.58;;;7.35;;
30681;SDS011;17439;48.092;11.842;2024-01-11T04:01:04;25.52;;;8.05;;
30681;SDS011;17439;48.092;11.842;2024-01-11T04:03:30;26.33;;;8.38;;
30681;SDS011;17439;48.092;11.842;2024-01-11T04:05:57;24.42;;;7.75;;
30681;SDS011;17439;48.092;11.842;2024-01-11T04:08:24;25.08;;;9.10;;
30681;SDS011;17439;48.092;11.842;2024-01-11T04:10:51;24.02;;;8.25;;
30681;SDS011;17439;48.092;11.842;2024-01-11T04:13:17;18.50;;;7.38;;
30681;SDS011;17439;48.092;11.842;2024-01-11T04:15:45;16.88;;;7.22;;
30681;SDS011;17439;48.092;11.842;2024-01-11T04:18:12;22.85;;;7.35;;
30681;SDS011;17439;48.092;11.842;2024-01-11T04:20:39;20.80;;;9.23;;
30681;SDS011;17439;48.092;11.842;2024-01-11T04:23:06;24.63;;;8.90;;
30681;SDS011;17439;48.092;11.842;2024-01-11T04:25:33;29.27;;;9.40;;
30681;SDS011;17439;48.092;11.842;2024-01-11T04:27:59;21.95;;;8.48;;
30681;SDS011;17439;48.092;11.842;2024-01-11T04:30:26;27.23;;;9.52;;
30681;SDS011;17439;48.092;11.842;2024-01-11T04:32:53;23.20;;;6.83;;
30681;SDS011;17439;48.092;11.842;2024-01-11T04:35:20;27.67;;;9.50;;
30681;SDS011;17439;48.092;11.842;2024-01-11T04:37:47;22.27;;;7.53;;
30681;SDS011;17439;48.092;11.842;2024-01-11T04:40:13;30.73;;;9.63;;
30681;SDS011;17439;48.092;11.842;2024-01-11T04:42:40;30.42;;;10.23;;
30681;SDS011;17439;48.092;11.842;2024-01-11T04:45:07;26.10;;;8.27;;
30681;SDS011;17439;48.092;11.842;2024-01-11T04:47:34;27.25;;;8.55;;
30681;SDS011;17439;48.092;11.842;2024-01-11T04:50:01;23.92;;;7.47;;
30681;SDS011;17439;48.092;11.842;2024-01-11T04:52:28;21.45;;;7.05;;
30681;SDS011;17439;48.092;11.842;2024-01-11T04:54:55;23.27;;;8.70;;
30681;SDS011;17439;48.092;11.842;2024-01-11T04:57:21;20.05;;;7.25;;
30681;SDS011;17439;48.092;11.842;2024-01-11T04:59:48;18.77;;;7.22;;
30681;SDS011;17439;48.092;11.842;2024-01-11T05:02:15;22.33;;;8.77;;
30681;SDS011;17439;48.092;11.842;2024-01-11T05:04:42;25.42;;;9.48;;
30681;SDS011;17439;48.092;11.842;2024-01-11T05:07:08;22.67;;;8.30;;
30681;SDS011;17439;48.092;11.842;2024-01-11T05:09:35;21.42;;;8.15;;
30681;SDS011;17439;48.092;11.842;2024-01-11T05:12:02;33.40;;;10.07;;
30681;SDS011;17439;48.092;11.842;2024-01-11T05:14:29;35.23;;;9.33;;
30681;SDS011;17439;48.092;11.842;2024-01-11T05:16:56;23.58;;;8.23;;
30681;SDS011;17439;48.092;11.842;2024-01-11T05:19:23;20.95;;;7.47;;
30681;SDS011;17439;48.092;11.842;2024-01-11T05:21:49;19.42;;;7.07;;
30681;SDS011;17439;48.092;11.842;2024-01-11T05:24:16;17.50;;;6.05;;
30681;SDS011;17439;48.092;11.842;2024-01-11T05:26:43;21.25;;;7.80;;
30681;SDS011;17439;48.092;11.842;2024-01-11T05:29:10;24.48;;;9.15;;
30681;SDS011;17439;48.092;11.842;2024-01-11T05:31:36;19.20;;;7.55;;
30681;SDS011;17439;48.092;11.842;2024-01-11T05:34:03;20.23;;;6.77;;
30681;SDS011;17439;48.092;11.842;2024-01-11T05:36:30;22.90;;;7.80;;
30681;SDS011;17439;48.092;11.842;2024-01-11T05:38:57;22.95;;;9.00;;
30681;SDS011;17439;48.092;11.842;2024-01-11T05:41:24;23.92;;;8.30;;
30681;SDS011;17439;48.092;11.842;2024-01-11T05:43:50;23.60;;;8.00;;
30681;SDS011;17439;48.092;11.842;2024-01-11T05:46:17;21.60;;;7.95;;
30681;SDS011;17439;48.092;11.842;2024-01-11T05:48:44;21.15;;;8.40;;
30681;SDS011;17439;48.092;11.842;2024-01-11T05:51:11;21.38;;;7.65;;
30681;SDS011;17439;48.092;11.842;2024-01-11T05:53:37;23.50;;;8.65;;
30681;SDS011;17439;48.092;11.842;2024-01-11T05:56:10;26.40;;;8.20;;
30681;SDS011;17439;48.092;11.842;2024-01-11T05:58:37;19.35;;;7.22;;
30681;SDS011;17439;48.092;11.842;2024-01-11T06:01:06;18.40;;;7.82;;
30681;SDS011;17439;48.092;11.842;2024-01-11T06:03:33;24.67;;;8.63;;
30681;SDS011;17439;48.092;11.842;2024-01-11T06:06:00;24.40;;;9.57;;
30681;SDS011;17439;48.092;11.842;2024-01-11T06:08:28;25.63;;;8.75;;
30681;SDS011;17439;48.092;11.842;2024-01-11T06:10:55;23.95;;;8.18;;
30681;SDS011;17439;48.092;11.842;2024-01-11T06:13:22;27.20;;;7.88;;
30681;SDS011;17439;48.092;11.842;2024-01-11T06:15:49;23.63;;;7.60;;
30681;SDS011;17439;48.092;11.842;2024-01-11T06:18:16;23.83;;;8.65;;
30681;SDS011;17439;48.092;11.842;2024-01-11T06:20:43;25.73;;;8.00;;
30681;SDS011;17439;48.092;11.842;2024-01-11T06:23:10;23.35;;;6.50;;
30681;SDS011;17439;48.092;11.842;2024-01-11T06:25:37;17.38;;;7.10;;
30681;SDS011;17439;48.092;11.842;2024-01-11T06:28:04;25.08;;;7.38;;
30681;SDS011;17439;48.092;11.842;2024-01-11T06:30:30;31.77;;;7.27;;
30681;SDS011;17439;48.092;11.842;2024-01-11T06:32:57;21.10;;;8.98;;
30681;SDS011;17439;48.092;11.842;2024-01-11T06:35:24;24.17;;;7.97;;
30681;SDS011;17439;48.092;11.842;2024-01-11T06:37:51;26.83;;;9.48;;
30681;SDS011;17439;48.092;11.842;2024-01-11T06:40:18;28.42;;;9.43;;
30681;SDS011;17439;48.092;11.842;2024-01-11T06:42:44;29.55;;;10.38;;
30681;SDS011;17439;48.092;11.842;2024-01-11T06:45:11;26.52;;;8.85;;
30681;SDS011;17439;48.092;11.842;2024-01-11T06:47:38;20.70;;;7.65;;
30681;SDS011;17439;48.092;11.842;2024-01-11T06:50:05;23.98;;;8.80;;
30681;SDS011;17439;48.092;11.842;2024-01-11T06:52:33;25.27;;;7.90;;
30681;SDS011;17439;48.092;11.842;2024-01-11T06:54:59;20.90;;;7.60;;
30681;SDS011;17439;48.092;11.842;2024-01-11T06:57:26;21.45;;;7.20;;
30681;SDS011;17439;48.092;11.842;2024-01-11T06:59:53;19.17;;;7.63;;
30681;SDS011;17439;48.092;11.842;2024-01-11T07:02:20;20.55;;;7.88;;
30681;SDS011;17439;48.092;11.842;2024-01-11T07:04:46;25.13;;;10.07;;
30681;SDS011;17439;48.092;11.842;2024-01-11T07:07:13;24.50;;;8.45;;
30681;SDS011;17439;48.092;11.842;2024-01-11T07:09:40;29.27;;;9.75;;
30681;SDS011;17439;48.092;11.842;2024-01-11T07:12:07;27.35;;;8.27;;
30681;SDS011;17439;48.092;11.842;2024-01-11T07:14:34;28.58;;;9.35;;
30681;SDS011;17439;48.092;11.842;2024-01-11T07:17:00;21.63;;;8.98;;
30681;SDS011;17439;48.092;11.842;2024-01-11T07:19:27;25.92;;;9.50;;
30681;SDS011;17439;48.092;11.842;2024-01-11T07:21:54;23.30;;;8.45;;
30681;SDS011;17439;48.092;11.842;2024-01-11T07:24:21;30.88;;;9.70;;
30681;SDS011;17439;48.092;11.842;2024-01-11T07:26:47;24.35;;;8.77;;
30681;SDS011;17439;48.092;11.842;2024-01-11T07:29:14;21.98;;;8.73;;
30681;SDS011;17439;48.092;11.842;2024-01-11T07:31:41;27.58;;;10.45;;
30681;SDS011;17439;48.092;11.842;2024-01-11T07:34:08;22.90;;;9.90;;
30681;SDS011;17439;48.092;11.842;2024-01-11T07:36:35;28.80;;;10.75;;
30681;SDS011;17439;48.092;11.842;2024-01-11T07:39:02;24.60;;;8.52;;
30681;SDS011;17439;48.092;11.842;2024-01-11T07:41:28;31.23;;;10.40;;
30681;SDS011;17439;48.092;11.842;2024-01-11T07:43:55;30.83;;;9.95;;
30681;SDS011;17439;48.092;11.842;2024-01-11T07:46:22;31.35;;;10.32;;
30681;SDS011;17439;48.092;11.842;2024-01-11T07:49:04;27.15;;;9.15;;
30681;SDS011;17439;48.092;11.842;2024-01-11T07:51:31;33.63;;;11.30;;
30681;SDS011;17439;48.092;11.842;2024-01-11T07:53:58;25.65;;;8.77;;
30681;SDS011;17439;48.092;11.842;2024-01-11T07:56:25;25.77;;;9.27;;
30681;SDS011;17439;48.092;11.842;2024-01-11T07:58:52;25.70;;;9.57;;
30681;SDS011;17439;48.092;11.842;2024-01-11T08:01:19;35.63;;;12.05;;
30681;SDS011;17439;48.092;11.842;2024-01-11T08:03:46;29.85;;;10.40;;
30681;SDS011;17439;48.092;11.842;2024-01-11T08:06:13;29.20;;;9.82;;
30681;SDS011;17439;48.092;11.842;2024-01-11T08:08:40;24.63;;;9.20;;
30681;SDS011;17439;48.092;11.842;2024-01-11T08:11:07;30.10;;;10.52;;
30681;SDS011;17439;48.092;11.842;2024-01-11T08:13:34;28.45;;;11.05;;
30681;SDS011;17439;48.092;11.842;2024-01-11T08:16:01;30.50;;;10.10;;
30681;SDS011;17439;48.092;11.842;2024-01-11T08:18:28;26.52;;;9.80;;
30681;SDS011;17439;48.092;11.842;2024-01-11T08:20:56;27.08;;;9.77;;
30681;SDS011;17439;48.092;11.842;2024-01-11T08:23:23;35.30;;;12.37;;
30681;SDS011;17439;48.092;11.842;2024-01-11T08:25:49;29.70;;;9.05;;
30681;SDS011;17439;48.092;11.842;2024-01-11T08:28:16;33.67;;;11.35;;
30681;SDS011;17439;48.092;11.842;2024-01-11T08:30:43;25.58;;;9.38;;
30681;SDS011;17439;48.092;11.842;2024-01-11T08:33:10;28.58;;;12.60;;
30681;SDS011;17439;48.092;11.842;2024-01-11T08:35:37;28.77;;;9.95;;
30681;SDS011;17439;48.092;11.842;2024-01-11T08:38:03;24.40;;;9.05;;
30681;SDS011;17439;48.092;11.842;2024-01-11T08:40:30;31.92;;;10.98;;
30681;SDS011;17439;48.092;11.842;2024-01-11T08:42:57;30.92;;;8.82;;
30681;SDS011;17439;48.092;11.842;2024-01-11T08:45:23;26.17;;;9.10;;
30681;SDS011;17439;48.092;11.842;2024-01-11T08:47:50;26.50;;;10.13;;
30681;SDS011;17439;48.092;11.842;2024-01-11T08:50:17;30.63;;;10.60;;
30681;SDS011;17439;48.092;11.842;2024-01-11T08:52:49;41.45;;;13.93;;
30681;SDS011;17439;48.092;11.842;2024-01-11T08:55:16;47.35;;;15.07;;
30681;SDS011;17439;48.092;11.842;2024-01-11T08:57:42;38.10;;;13.50;;
30681;SDS011;17439;48.092;11.842;2024-01-11T09:00:09;45.33;;;15.65;;
30681;SDS011;17439;48.092;11.842;2024-01-11T09:02:36;42.13;;;13.65;;
30681;SDS011;17439;48.092;11.842;2024-01-11T09:05:03;35.97;;;12.02;;
30681;SDS011;17439;48.092;11.842;2024-01-11T09:07:34;39.83;;;11.13;;
30681;SDS011;17439;48.092;11.842;2024-01-11T09:10:01;45.30;;;14.25;;
30681;SDS011;17439;48.092;11.842;2024-01-11T09:12:27;39.97;;;12.88;;
30681;SDS011;17439;48.092;11.842;2024-01-11T09:14:54;33.05;;;12.48;;
30681;SDS011;17439;48.092;11.842;2024-01-11T09:17:21;52.45;;;14.25;;
30681;SDS011;17439;48.092;11.842;2024-01-11T09:19:48;46.40;;;12.57;;
30681;SDS011;17439;48.092;11.842;2024-01-11T09:22:16;39.92;;;11.80;;
30681;SDS011;17439;48.092;11.842;2024-01-11T09:24:43;31.47;;;10.47;;
30681;SDS011;17439;48.092;11.842;2024-01-11T09:27:09;46.65;;;12.32;;
30681;SDS011;17439;48.092;11.842;2024-01-11T09:29:36;40.20;;;11.77;;
30681;SDS011;17439;48.092;11.842;2024-01-11T09:32:03;40.08;;;12.20;;
30681;SDS011;17439;48.092;11.842;2024-01-11T09:34:30;43.17;;;12.88;;
30681;SDS011;17439;48.092;11.842;2024-01-11T09:36:57;38.08;;;12.35;;
30681;SDS011;17439;48.092;11.842;2024-01-11T09:39:24;45.55;;;15.23;;
30681;SDS011;17439;48.092;11.842;2024-01-11T09:41:52;45.20;;;13.48;;
30681;SDS011;17439;48.092;11.842;2024-01-11T09:44:25;27.73;;;10.52;;
30681;SDS011;17439;48.092;11.842;2024-01-11T09:46:53;38.58;;;13.65;;
30681;SDS011;17439;48.092;11.842;2024-01-11T09:49:21;36.70;;;12.25;;
30681;SDS011;17439;48.092;11.842;2024-01-11T09:51:49;47.72;;;13.30;;
30681;SDS011;17439;48.092;11.842;2024-01-11T09:54:17;33.58;;;10.20;;
30681;SDS011;17439;48.092;11.842;2024-01-11T09:56:45;35.25;;;13.10;;
30681;SDS011;17439;48.092;11.842;2024-01-11T09:59:12;35.08;;;10.88;;
30681;SDS011;17439;48.092;11.842;2024-01-11T10:04:07;31.63;;;9.82;;
30681;SDS011;17439;48.092;11.842;2024-01-11T10:06:34;33.80;;;10.90;;
30681;SDS011;17439;48.092;11.842;2024-01-11T10:09:04;35.45;;;11.32;;
30681;SDS011;17439;48.092;11.842;2024-01-11T10:11:31;43.47;;;12.68;;
30681;SDS011;17439;48.092;11.842;2024-01-11T10:13:58;38.63;;;11.73;;
30681;SDS011;17439;48.092;11.842;2024-01-11T10:16:25;31.80;;;12.57;;
30681;SDS011;17439;48.092;11.842;2024-01-11T10:18:53;40.65;;;13.30;;
30681;SDS011;17439;48.092;11.842;2024-01-11T10:21:21;24.88;;;10.38;;
30681;SDS011;17439;48.092;11.842;2024-01-11T10:23:51;43.57;;;13.00;;
30681;SDS011;17439;48.092;11.842;2024-01-11T10:26:18;29.15;;;10.32;;
30681;SDS011;17439;48.092;11.842;2024-01-11T10:28:45;32.65;;;10.07;;
30681;SDS011;17439;48.092;11.842;2024-01-11T10:31:13;34.83;;;11.15;;
30681;SDS011;17439;48.092;11.842;2024-01-11T10:33:40;40.07;;;13.30;;
30681;SDS011;17439;48.092;11.842;2024-01-11T10:36:07;45.25;;;13.68;;
30681;SDS011;17439;48.092;11.842;2024-01-11T10:38:35;45.15;;;16.92;;
30681;SDS011;17439;48.092;11.842;2024-01-11T10:41:05;34.58;;;13.25;;
30681;SDS011;17439;48.092;11.842;2024-01-11T10:43:36;34.05;;;12.38;;
30681;SDS011;17439;48.092;11.842;2024-01-11T10:46:04;36.38;;;12.25;;
30681;SDS011;17439;48.092;11.842;2024-01-11T10:48:31;43.72;;;12.40;;
30681;SDS011;17439;48.092;11.842;2024-01-11T10:51:08;41.25;;;13.68;;
30681;SDS011;17439;48.092;11.842;2024-01-11T10:53:42;38.88;;;12.43;;
30681;SDS011;17439;48.092;11.842;2024-01-11T10:56:11;45.42;;;13.20;;
30681;SDS011;17439;48.092;11.842;2024-01-11T10:58:41;67.10;;;23.02;;
30681;SDS011;17439;48.092;11.842;2024-01-11T11:01:11;100.30;;;31.50;;
30681;SDS011;17439;48.092;11.842;2024-01-11T11:06:07;53.67;;;14.57;;
30681;SDS011;17439;48.092;11.842;2024-01-11T11:08:36;37.70;;;12.95;;
30681;SDS011;17439;48.092;11.842;2024-01-11T11:11:04;42.08;;;14.60;;
30681;SDS011;17439;48.092;11.842;2024-01-11T11:13:31;46.63;;;14.25;;
30681;SDS011;17439;48.092;11.842;2024-01-11T11:15:59;44.65;;;15.52;;
30681;SDS011;17439;48.092;11.842;2024-01-11T11:18:27;44.92;;;12.38;;
30681;SDS011;17439;48.092;11.842;2024-01-11T11:20:54;40.83;;;13.37;;
30681;SDS011;17439;48.092;11.842;2024-01-11T11:23:21;39.53;;;14.05;;
30681;SDS011;17439;48.092;11.842;2024-01-11T11:25:48;42.92;;;13.98;;
30681;SDS011;17439;48.092;11.842;2024-01-11T11:28:16;49.03;;;15.02;;
30681;SDS011;17439;48.092;11.842;2024-01-11T11:30:44;52.90;;;18.88;;
30681;SDS011;17439;48.092;11.842;2024-01-11T11:33:17;47.47;;;17.90;;
30681;SDS011;17439;48.092;11.842;2024-01-11T11:35:46;52.17;;;15.98;;
30681;SDS011;17439;48.092;11.842;2024-01-11T11:40:48;61.45;;;16.58;;
30681;SDS011;17439;48.092;11.842;2024-01-11T11:43:18;53.00;;;15.07;;
30681;SDS011;17439;48.092;11.842;2024-01-11T11:45:47;39.97;;;15.32;;
30681;SDS011;17439;48.092;11.842;2024-01-11T11:51:01;44.72;;;14.75;;
30681;SDS011;17439;48.092;11.842;2024-01-11T11:53:35;40.15;;;14.68;;
30681;SDS011;17439;48.092;11.842;2024-01-11T11:56:04;33.38;;;11.10;;
30681;SDS011;17439;48.092;11.842;2024-01-11T11:58:31;41.65;;;13.00;;
30681;SDS011;17439;48.092;11.842;2024-01-11T12:03:28;52.65;;;16.83;;
30681;SDS011;17439;48.092;11.842;2024-01-11T12:05:56;66.80;;;19.00;;
30681;SDS011;17439;48.092;11.842;2024-01-11T12:08:24;57.40;;;17.15;;
30681;SDS011;17439;48.092;11.842;2024-01-11T12:10:51;53.35;;;15.57;;
30681;SDS011;17439;48.092;11.842;2024-01-11T12:13:18;46.30;;;13.55;;
30681;SDS011;17439;48.092;11.842;2024-01-11T12:15:45;39.17;;;11.25;;
30681;SDS011;17439;48.092;11.842;2024-01-11T12:18:12;52.53;;;13.75;;
30681;SDS011;17439;48.092;11.842;2024-01-11T12:20:40;61.92;;;19.63;;
30681;SDS011;17439;48.092;11.842;2024-01-11T12:23:07;51.53;;;15.88;;
30681;SDS011;17439;48.092;11.842;2024-01-11T12:25:34;43.10;;;13.05;;
30681;SDS011;17439;48.092;11.842;2024-01-11T12:28:02;45.20;;;12.52;;
30681;SDS011;17439;48.092;11.842;2024-01-11T12:30:29;41.78;;;14.10;;
30681;SDS011;17439;48.092;11.842;2024-01-11T12:32:56;32.00;;;13.13;;
30681;SDS011;17439;48.092;11.842;2024-01-11T12:35:23;37.85;;;13.32;;
30681;SDS011;17439;48.092;11.842;2024-01-11T12:37:59;40.20;;;15.43;;
30681;SDS011;17439;48.092;11.842;2024-01-11T12:40:35;41.75;;;13.73;;
30681;SDS011;17439;48.092;11.842;2024-01-11T12:43:03;42.30;;;14.40;;
30681;SDS011;17439;48.092;11.842;2024-01-11T12:47:59;47.28;;;13.80;;
30681;SDS011;17439;48.092;11.842;2024-01-11T12:53:09;66.78;;;17.25;;
30681;SDS011;17439;48.092;11.842;2024-01-11T12:55:38;41.70;;;14.48;;
30681;SDS011;17439;48.092;11.842;2024-01-11T12:58:20;42.90;;;13.88;;
30681;SDS011;17439;48.092;11.842;2024-01-11T13:00:47;37.57;;;14.07;;
30681;SDS011;17439;48.092;11.842;2024-01-11T13:03:14;39.97;;;15.30;;
30681;SDS011;17439;48.092;11.842;2024-01-11T13:05:41;41.00;;;15.70;;
30681;SDS011;17439;48.092;11.842;2024-01-11T13:08:08;31.58;;;13.80;;
30681;SDS011;17439;48.092;11.842;2024-01-11T13:10:35;41.58;;;14.45;;
30681;SDS011;17439;48.092;11.842;2024-01-11T13:13:03;43.92;;;14.75;;
30681;SDS011;17439;48.092;11.842;2024-01-11T13:15:35;39.00;;;12.55;;
30681;SDS011;17439;48.092;11.842;2024-01-11T13:18:01;37.33;;;12.80;;
30681;SDS011;17439;48.092;11.842;2024-01-11T13:20:29;39.53;;;13.50;;
30681;SDS011;17439;48.092;11.842;2024-01-11T13:23:11;39.38;;;12.40;;
30681;SDS011;17439;48.092;11.842;2024-01-11T13:25:41;37.88;;;14.45;;
30681;SDS011;17439;48.092;11.842;2024-01-11T13:28:09;38.22;;;14.70;;
30681;SDS011;17439;48.092;11.842;2024-01-11T13:30:40;49.53;;;16.08;;
30681;SDS011;17439;48.092;11.842;2024-01-11T13:33:08;49.60;;;14.95;;
30681;SDS011;17439;48.092;11.842;2024-01-11T13:35:36;38.05;;;15.07;;
30681;SDS011;17439;48.092;11.842;2024-01-11T13:38:03;38.50;;;13.40;;
30681;SDS011;17439;48.092;11.842;2024-01-11T13:40:31;32.70;;;10.63;;
30681;SDS011;17439;48.092;11.842;2024-01-11T13:42:58;41.22;;;13.38;;
30681;SDS011;17439;48.092;11.842;2024-01-11T13:45:26;33.88;;;12.38;;
30681;SDS011;17439;48.092;11.842;2024-01-11T13:47:53;37.17;;;13.87;;
30681;SDS011;17439;48.092;11.842;2024-01-11T13:50:21;33.90;;;12.02;;
30681;SDS011;17439;48.092;11.842;2024-01-11T13:52:51;39.13;;;14.50;;
30681;SDS011;17439;48.092;11.842;2024-01-11T13:55:19;50.50;;;14.90;;
30681;SDS011;17439;48.092;11.842;2024-01-11T13:57:46;41.28;;;14.50;;
30681;SDS011;17439;48.092;11.842;2024-01-11T14:00:13;55.53;;;18.55;;
30681;SDS011;17439;48.092;11.842;2024-01-11T14:02:40;46.50;;;16.65;;
30681;SDS011;17439;48.092;11.842;2024-01-11T14:05:07;49.58;;;16.33;;
30681;SDS011;17439;48.092;11.842;2024-01-11T14:07:34;47.28;;;17.33;;
30681;SDS011;17439;48.092;11.842;2024-01-11T14:10:01;43.53;;;15.00;;
30681;SDS011;17439;48.092;11.842;2024-01-11T14:12:28;53.47;;;14.67;;
30681;SDS011;17439;48.092;11.842;2024-01-11T14:14:55;53.78;;;15.32;;
30681;SDS011;17439;48.092;11.842;2024-01-11T14:17:22;47.90;;;14.32;;
30681;SDS011;17439;48.092;11.842;2024-01-11T14:19:49;45.70;;;13.60;;
30681;SDS011;17439;48.092;11.842;2024-01-11T14:22:16;49.65;;;14.43;;
30681;SDS011;17439;48.092;11.842;2024-01-11T14:24:43;49.95;;;14.02;;
30681;SDS011;17439;48.092;11.842;2024-01-11T14:27:09;59.30;;;16.67;;
30681;SDS011;17439;48.092;11.842;2024-01-11T14:29:36;54.65;;;15.40;;
30681;SDS011;17439;48.092;11.842;2024-01-11T14:32:03;42.80;;;13.93;;
30681;SDS011;17439;48.092;11.842;2024-01-11T14:34:30;57.27;;;17.47;;
30681;SDS011;17439;48.092;11.842;2024-01-11T14:36:57;45.50;;;14.50;;